sensor_id;sensor_type;location;lat;lon;timestamp;temperature;humidity
64549;DHT22;49838;51.798;10.954;2024-03-23T00:53:59;14.90;39.80
64549;DHT22;49838;51.798;10.954;2024-03-23T00:56:31;14.90;39.80
64549;DHT22;49838;51.798;10.954;2024-03-23T00:59:05;14.90;39.70
64549;DHT22;49838;51.798;10.954;2024-03-23T01:01:37;14.90;39.70
64549;DHT22;49838;51.798;10.954;2024-03-23T01:04:11;14.90;39.70
64549;DHT22;49838;51.798;10.954;2024-03-23T01:06:50;14.90;39.80
64549;DHT22;49838;51.798;10.954;2024-03-23T01:09:19;14.90;39.70
64549;DHT22;49838;51.798;10.954;2024-03-23T01:11:49;14.90;39.70
64549;DHT22;49838;51.798;10.954;2024-03-23T01:14:17;14.90;39.70
64549;DHT22;49838;51.798;10.954;2024-03-23T01:16:43;14.90;39.70
64549;DHT22;49838;51.798;10.954;2024-03-23T01:19:15;14.80;39.70
64549;DHT22;49838;51.798;10.954;2024-03-23T01:21:42;14.80;39.70
64549;DHT22;49838;51.798;10.954;2024-03-23T01:24:15;14.80;39.70
64549;DHT22;49838;51.798;10.954;2024-03-23T01:26:44;14.80;39.80
64549;DHT22;49838;51.798;10.954;2024-03-23T01:29:12;14.80;40.10
64549;DHT22;49838;51.798;10.954;2024-03-23T01:31:39;14.60;39.90
64549;DHT22;49838;51.798;10.954;2024-03-23T01:34:10;14.60;40.50
64549;DHT22;49838;51.798;10.954;2024-03-23T01:36:39;14.60;39.90
64549;DHT22;49838;51.798;10.954;2024-03-23T01:39:07;14.60;39.80
64549;DHT22;49838;51.798;10.954;2024-03-23T01:41:40;14.60;39.80
64549;DHT22;49838;51.798;10.954;2024-03-23T01:44:16;14.60;39.70
64549;DHT22;49838;51.798;10.954;2024-03-23T01:46:43;14.60;39.70
64549;DHT22;49838;51.798;10.954;2024-03-23T01:49:15;14.60;39.70
64549;DHT22;49838;51.798;10.954;2024-03-23T01:51:45;14.50;39.70
64549;DHT22;49838;51.798;10.954;2024-03-23T01:54:25;14.50;39.70
64549;DHT22;49838;51.798;10.954;2024-03-23T01:56:52;14.50;39.80
64549;DHT22;49838;51.798;10.954;2024-03-23T01:59:23;14.40;39.70
64549;DHT22;49838;51.798;10.954;2024-03-23T02:01:50;14.30;39.60
64549;DHT22;49838;51.798;10.954;2024-03-23T02:04:20;14.40;39.70
64549;DHT22;49838;51.798;10.954;2024-03-23T02:06:50;14.40;39.80
64549;DHT22;49838;51.798;10.954;2024-03-23T02:09:18;14.40;39.70
64549;DHT22;49838;51.798;10.954;2024-03-23T02:11:53;14.30;39.60
64549;DHT22;49838;51.798;10.954;2024-03-23T02:14:23;14.40;39.70
64549;DHT22;49838;51.798;10.954;2024-03-23T02:16:50;14.40;39.70
64549;DHT22;49838;51.798;10.954;2024-03-23T02:19:30;14.30;39.60
64549;DHT22;49838;51.798;10.954;2024-03-23T02:22:03;14.30;39.60
64549;DHT22;49838;51.798;10.954;2024-03-23T02:24:32;14.30;39.70
64549;DHT22;49838;51.798;10.954;2024-03-23T02:27:01;14.30;39.70
64549;DHT22;49838;51.798;10.954;2024-03-23T02:29:34;14.30;39.60
64549;DHT22;49838;51.798;10.954;2024-03-23T02:32:01;14.30;39.70
64549;DHT22;49838;51.798;10.954;2024-03-23T02:34:29;14.20;39.80
64549;DHT22;49838;51.798;10.954;2024-03-23T02:37:01;14.20;39.80
64549;DHT22;49838;51.798;10.954;2024-03-23T02:39:29;14.20;39.80
64549;DHT22;49838;51.798;10.954;2024-03-23T02:41:57;14.20;39.70
64549;DHT22;49838;51.798;10.954;2024-03-23T02:44:28;14.20;39.70
64549;DHT22;49838;51.798;10.954;2024-03-23T02:46:58;14.20;39.70
64549;DHT22;49838;51.798;10.954;2024-03-23T02:49:26;14.20;40.40
64549;DHT22;49838;51.798;10.954;2024-03-23T02:51:54;14.10;39.70
64549;DHT22;49838;51.798;10.954;2024-03-23T02:54:22;14.10;39.70
64549;DHT22;49838;51.798;10.954;2024-03-23T02:56:54;14.10;39.70
64549;DHT22;49838;51.798;10.954;2024-03-23T02:59:23;14.00;39.70
64549;DHT22;49838;51.798;10.954;2024-03-23T03:01:49;14.00;39.70
64549;DHT22;49838;51.798;10.954;2024-03-23T03:04:20;14.00;39.70
64549;DHT22;49838;51.798;10.954;2024-03-23T03:06:47;14.00;39.70
64549;DHT22;49838;51.798;10.954;2024-03-23T03:09:18;14.00;39.70
64549;DHT22;49838;51.798;10.954;2024-03-23T03:11:45;13.90;40.50
64549;DHT22;49838;51.798;10.954;2024-03-23T03:14:18;13.80;40.50
64549;DHT22;49838;51.798;10.954;2024-03-23T03:16:53;13.70;40.20
64549;DHT22;49838;51.798;10.954;2024-03-23T03:19:20;13.70;40.20
64549;DHT22;49838;51.798;10.954;2024-03-23T03:21:50;13.60;40.00
64549;DHT22;49838;51.798;10.954;2024-03-23T03:24:19;13.60;39.90
64549;DHT22;49838;51.798;10.954;2024-03-23T03:26:54;13.70;39.90
64549;DHT22;49838;51.798;10.954;2024-03-23T03:29:23;13.60;39.70
64549;DHT22;49838;51.798;10.954;2024-03-23T03:31:52;13.60;39.80
64549;DHT22;49838;51.798;10.954;2024-03-23T03:34:20;13.60;39.90
64549;DHT22;49838;51.798;10.954;2024-03-23T03:36:47;13.50;39.90
64549;DHT22;49838;51.798;10.954;2024-03-23T03:39:24;13.50;39.90
64549;DHT22;49838;51.798;10.954;2024-03-23T03:42:04;13.50;40.10
64549;DHT22;49838;51.798;10.954;2024-03-23T03:44:51;13.40;40.00
64549;DHT22;49838;51.798;10.954;2024-03-23T03:47:25;13.30;40.00
64549;DHT22;49838;51.798;10.954;2024-03-23T03:49:59;13.40;40.30
64549;DHT22;49838;51.798;10.954;2024-03-23T03:52:45;13.30;40.70
64549;DHT22;49838;51.798;10.954;2024-03-23T03:55:32;13.20;40.20
64549;DHT22;49838;51.798;10.954;2024-03-23T03:58:03;13.20;40.50
64549;DHT22;49838;51.798;10.954;2024-03-23T04:00:30;13.10;40.30
64549;DHT22;49838;51.798;10.954;2024-03-23T04:03:00;13.10;40.30
64549;DHT22;49838;51.798;10.954;2024-03-23T04:05:26;13.10;40.60
64549;DHT22;49838;51.798;10.954;2024-03-23T04:08:25;13.00;40.30
64549;DHT22;49838;51.798;10.954;2024-03-23T04:10:56;13.00;40.40
64549;DHT22;49838;51.798;10.954;2024-03-23T04:13:26;13.00;40.30
64549;DHT22;49838;51.798;10.954;2024-03-23T04:15:54;12.90;40.10
64549;DHT22;49838;51.798;10.954;2024-03-23T04:18:33;12.90;40.80
64549;DHT22;49838;51.798;10.954;2024-03-23T04:21:01;12.80;41.40
64549;DHT22;49838;51.798;10.954;2024-03-23T04:23:30;12.70;41.40
64549;DHT22;49838;51.798;10.954;2024-03-23T04:26:02;12.70;41.60
64549;DHT22;49838;51.798;10.954;2024-03-23T04:28:29;12.60;41.40
64549;DHT22;49838;51.798;10.954;2024-03-23T04:30:58;12.50;41.50
64549;DHT22;49838;51.798;10.954;2024-03-23T04:33:29;12.50;41.40
64549;DHT22;49838;51.798;10.954;2024-03-23T04:35:58;12.40;41.40
64549;DHT22;49838;51.798;10.954;2024-03-23T04:38:25;12.40;41.20
64549;DHT22;49838;51.798;10.954;2024-03-23T04:40:53;12.40;41.40
64549;DHT22;49838;51.798;10.954;2024-03-23T04:43:25;12.40;42.10
64549;DHT22;49838;51.798;10.954;2024-03-23T04:45:53;12.30;41.50
64549;DHT22;49838;51.798;10.954;2024-03-23T04:48:21;12.30;41.70
64549;DHT22;49838;51.798;10.954;2024-03-23T04:50:54;12.30;41.70
64549;DHT22;49838;51.798;10.954;2024-03-23T04:53:25;12.30;41.30
64549;DHT22;49838;51.798;10.954;2024-03-23T04:55:59;12.30;41.20
64549;DHT22;49838;51.798;10.954;2024-03-23T04:58:26;12.30;40.90
64549;DHT22;49838;51.798;10.954;2024-03-23T05:00:57;12.30;40.70
64549;DHT22;49838;51.798;10.954;2024-03-23T05:03:24;12.30;40.80
64549;DHT22;49838;51.798;10.954;2024-03-23T05:05:51;12.20;40.50
64549;DHT22;49838;51.798;10.954;2024-03-23T05:08:19;12.20;40.50
64549;DHT22;49838;51.798;10.954;2024-03-23T05:10:57;12.30;40.80
64549;DHT22;49838;51.798;10.954;2024-03-23T05:13:25;12.30;40.60
64549;DHT22;49838;51.798;10.954;2024-03-23T05:15:55;12.20;40.50
64549;DHT22;49838;51.798;10.954;2024-03-23T05:18:28;12.20;40.40
64549;DHT22;49838;51.798;10.954;2024-03-23T05:21:02;12.10;40.40
64549;DHT22;49838;51.798;10.954;2024-03-23T05:23:29;12.10;40.30
64549;DHT22;49838;51.798;10.954;2024-03-23T05:28:49;12.10;40.20
64549;DHT22;49838;51.798;10.954;2024-03-23T05:31:27;12.10;40.20
64549;DHT22;49838;51.798;10.954;2024-03-23T05:33:56;12.00;40.30
64549;DHT22;49838;51.798;10.954;2024-03-23T05:36:23;12.00;40.50
64549;DHT22;49838;51.798;10.954;2024-03-23T05:38:50;11.90;40.40
64549;DHT22;49838;51.798;10.954;2024-03-23T05:41:19;11.90;40.30
64549;DHT22;49838;51.798;10.954;2024-03-23T05:43:50;11.90;40.20
64549;DHT22;49838;51.798;10.954;2024-03-23T05:46:21;11.90;40.30
64549;DHT22;49838;51.798;10.954;2024-03-23T05:48:47;11.80;40.10
64549;DHT22;49838;51.798;10.954;2024-03-23T05:51:15;11.80;40.70
64549;DHT22;49838;51.798;10.954;2024-03-23T05:53:43;11.80;40.10
64549;DHT22;49838;51.798;10.954;2024-03-23T05:56:11;11.80;40.00
64549;DHT22;49838;51.798;10.954;2024-03-23T05:58:51;11.80;40.10
64549;DHT22;49838;51.798;10.954;2024-03-23T06:01:41;11.80;40.10
64549;DHT22;49838;51.798;10.954;2024-03-23T06:04:09;11.80;39.90
64549;DHT22;49838;51.798;10.954;2024-03-23T06:06:42;11.80;39.80
64549;DHT22;49838;51.798;10.954;2024-03-23T06:09:12;11.80;39.70
64549;DHT22;49838;51.798;10.954;2024-03-23T06:11:41;11.80;39.70
64549;DHT22;49838;51.798;10.954;2024-03-23T06:14:18;11.80;39.80
64549;DHT22;49838;51.798;10.954;2024-03-23T06:16:45;11.70;39.90
64549;DHT22;49838;51.798;10.954;2024-03-23T06:19:14;11.70;39.90
64549;DHT22;49838;51.798;10.954;2024-03-23T06:21:42;11.60;39.90
64549;DHT22;49838;51.798;10.954;2024-03-23T06:24:13;11.60;40.00
64549;DHT22;49838;51.798;10.954;2024-03-23T06:26:42;11.50;40.00
64549;DHT22;49838;51.798;10.954;2024-03-23T06:29:09;11.40;40.00
64549;DHT22;49838;51.798;10.954;2024-03-23T06:31:37;11.40;40.00
64549;DHT22;49838;51.798;10.954;2024-03-23T06:34:05;11.30;39.90
64549;DHT22;49838;51.798;10.954;2024-03-23T06:36:31;11.30;40.00
64549;DHT22;49838;51.798;10.954;2024-03-23T06:38:58;11.30;40.00
64549;DHT22;49838;51.798;10.954;2024-03-23T06:41:25;11.30;40.00
64549;DHT22;49838;51.798;10.954;2024-03-23T06:43:53;11.20;39.90
64549;DHT22;49838;51.798;10.954;2024-03-23T06:46:19;11.30;40.00
64549;DHT22;49838;51.798;10.954;2024-03-23T06:48:47;11.30;39.80
64549;DHT22;49838;51.798;10.954;2024-03-23T06:51:14;11.30;40.00
64549;DHT22;49838;51.798;10.954;2024-03-23T06:53:41;11.30;40.00
64549;DHT22;49838;51.798;10.954;2024-03-23T06:56:07;11.20;39.90
64549;DHT22;49838;51.798;10.954;2024-03-23T06:58:34;11.30;39.90
64549;DHT22;49838;51.798;10.954;2024-03-23T07:01:01;11.30;39.80
64549;DHT22;49838;51.798;10.954;2024-03-23T07:03:29;11.30;39.80
64549;DHT22;49838;51.798;10.954;2024-03-23T07:05:58;11.30;39.70
64549;DHT22;49838;51.798;10.954;2024-03-23T07:08:26;11.30;39.70
64549;DHT22;49838;51.798;10.954;2024-03-23T07:10:52;11.30;39.80
64549;DHT22;49838;51.798;10.954;2024-03-23T07:13:19;11.40;39.80
64549;DHT22;49838;51.798;10.954;2024-03-23T07:15:51;11.40;39.80
64549;DHT22;49838;51.798;10.954;2024-03-23T07:18:18;11.40;39.80
64549;DHT22;49838;51.798;10.954;2024-03-23T07:20:51;11.50;39.90
64549;DHT22;49838;51.798;10.954;2024-03-23T07:23:20;11.50;39.90
64549;DHT22;49838;51.798;10.954;2024-03-23T07:25:55;11.40;40.00
64549;DHT22;49838;51.798;10.954;2024-03-23T07:28:23;11.40;40.00
64549;DHT22;49838;51.798;10.954;2024-03-23T07:31:00;11.40;40.10
64549;DHT22;49838;51.798;10.954;2024-03-23T07:33:28;11.30;40.40
64549;DHT22;49838;51.798;10.954;2024-03-23T07:35:55;11.30;40.20
64549;DHT22;49838;51.798;10.954;2024-03-23T07:38:24;11.30;40.20
64549;DHT22;49838;51.798;10.954;2024-03-23T07:40:52;11.30;40.30
64549;DHT22;49838;51.798;10.954;2024-03-23T07:43:21;11.40;40.20
64549;DHT22;49838;51.798;10.954;2024-03-23T07:45:51;11.30;40.20
64549;DHT22;49838;51.798;10.954;2024-03-23T07:48:20;11.30;40.40
64549;DHT22;49838;51.798;10.954;2024-03-23T07:50:55;11.40;40.40
64549;DHT22;49838;51.798;10.954;2024-03-23T07:53:25;11.40;40.20
64549;DHT22;49838;51.798;10.954;2024-03-23T07:55:52;11.40;40.30
64549;DHT22;49838;51.798;10.954;2024-03-23T07:58:21;11.30;40.20
64549;DHT22;49838;51.798;10.954;2024-03-23T08:00:48;11.30;40.30
64549;DHT22;49838;51.798;10.954;2024-03-23T08:03:15;11.30;40.30
64549;DHT22;49838;51.798;10.954;2024-03-23T08:05:41;11.30;40.40
64549;DHT22;49838;51.798;10.954;2024-03-23T08:08:09;11.30;40.50
64549;DHT22;49838;51.798;10.954;2024-03-23T08:10:38;11.40;40.70
64549;DHT22;49838;51.798;10.954;2024-03-23T08:13:14;11.40;40.60
64549;DHT22;49838;51.798;10.954;2024-03-23T08:15:40;11.40;40.60
64549;DHT22;49838;51.798;10.954;2024-03-23T08:18:08;11.40;40.50
64549;DHT22;49838;51.798;10.954;2024-03-23T08:20:35;11.40;40.40
64549;DHT22;49838;51.798;10.954;2024-03-23T08:23:02;11.40;40.50
64549;DHT22;49838;51.798;10.954;2024-03-23T08:25:30;11.40;40.40
64549;DHT22;49838;51.798;10.954;2024-03-23T08:27:59;11.40;40.40
64549;DHT22;49838;51.798;10.954;2024-03-23T08:30:26;11.30;40.50
64549;DHT22;49838;51.798;10.954;2024-03-23T08:32:55;11.20;40.90
64549;DHT22;49838;51.798;10.954;2024-03-23T08:35:21;11.20;41.00
64549;DHT22;49838;51.798;10.954;2024-03-23T08:37:49;11.20;41.00
64549;DHT22;49838;51.798;10.954;2024-03-23T08:40:15;11.00;40.90
64549;DHT22;49838;51.798;10.954;2024-03-23T08:42:42;11.00;40.90
64549;DHT22;49838;51.798;10.954;2024-03-23T08:45:10;11.00;40.90
64549;DHT22;49838;51.798;10.954;2024-03-23T08:47:38;11.00;40.90
64549;DHT22;49838;51.798;10.954;2024-03-23T08:50:04;11.00;40.80
64549;DHT22;49838;51.798;10.954;2024-03-23T08:52:32;11.00;40.80
64549;DHT22;49838;51.798;10.954;2024-03-23T08:54:59;11.10;40.80
64549;DHT22;49838;51.798;10.954;2024-03-23T08:57:27;11.20;40.70
64549;DHT22;49838;51.798;10.954;2024-03-23T08:59:53;11.30;40.70
64549;DHT22;49838;51.798;10.954;2024-03-23T09:02:22;11.50;40.90
64549;DHT22;49838;51.798;10.954;2024-03-23T09:04:48;11.80;40.90
64549;DHT22;49838;51.798;10.954;2024-03-23T09:07:15;11.90;41.00
64549;DHT22;49838;51.798;10.954;2024-03-23T09:09:41;12.00;41.20
64549;DHT22;49838;51.798;10.954;2024-03-23T09:12:09;12.20;41.00
64549;DHT22;49838;51.798;10.954;2024-03-23T09:14:35;12.20;41.00
64549;DHT22;49838;51.798;10.954;2024-03-23T09:17:03;12.30;41.20
64549;DHT22;49838;51.798;10.954;2024-03-23T09:19:30;12.40;41.20
64549;DHT22;49838;51.798;10.954;2024-03-23T09:21:58;12.40;41.20
64549;DHT22;49838;51.798;10.954;2024-03-23T09:24:24;12.60;41.20
64549;DHT22;49838;51.798;10.954;2024-03-23T09:26:51;12.70;41.10
64549;DHT22;49838;51.798;10.954;2024-03-23T09:29:18;12.80;41.10
64549;DHT22;49838;51.798;10.954;2024-03-23T09:31:46;12.90;41.20
64549;DHT22;49838;51.798;10.954;2024-03-23T09:34:12;13.00;41.20
64549;DHT22;49838;51.798;10.954;2024-03-23T09:36:41;12.90;41.20
64549;DHT22;49838;51.798;10.954;2024-03-23T09:39:07;13.00;41.20
64549;DHT22;49838;51.798;10.954;2024-03-23T09:41:35;13.00;41.10
64549;DHT22;49838;51.798;10.954;2024-03-23T09:44:01;13.00;41.00
64549;DHT22;49838;51.798;10.954;2024-03-23T09:46:30;13.00;41.00
64549;DHT22;49838;51.798;10.954;2024-03-23T09:49:00;13.10;41.10
64549;DHT22;49838;51.798;10.954;2024-03-23T09:51:30;13.20;41.10
64549;DHT22;49838;51.798;10.954;2024-03-23T09:53:58;13.30;41.10
64549;DHT22;49838;51.798;10.954;2024-03-23T09:56:25;13.50;41.10
64549;DHT22;49838;51.798;10.954;2024-03-23T09:58:51;13.60;41.00
64549;DHT22;49838;51.798;10.954;2024-03-23T10:01:18;13.60;41.00
64549;DHT22;49838;51.798;10.954;2024-03-23T10:03:45;13.60;41.00
64549;DHT22;49838;51.798;10.954;2024-03-23T10:06:13;13.50;41.00
64549;DHT22;49838;51.798;10.954;2024-03-23T10:08:39;13.30;41.00
64549;DHT22;49838;51.798;10.954;2024-03-23T10:11:14;13.10;41.00
64549;DHT22;49838;51.798;10.954;2024-03-23T10:13:42;12.90;41.10
64549;DHT22;49838;51.798;10.954;2024-03-23T10:16:12;12.70;41.10
64549;DHT22;49838;51.798;10.954;2024-03-23T10:18:46;12.70;41.30
64549;DHT22;49838;51.798;10.954;2024-03-23T10:21:13;12.90;41.30
64549;DHT22;49838;51.798;10.954;2024-03-23T10:23:41;13.10;41.30
64549;DHT22;49838;51.798;10.954;2024-03-23T10:26:13;13.40;41.30
64549;DHT22;49838;51.798;10.954;2024-03-23T10:28:51;13.70;41.50
64549;DHT22;49838;51.798;10.954;2024-03-23T10:31:20;14.10;42.10
64549;DHT22;49838;51.798;10.954;2024-03-23T10:33:47;14.80;43.20
64549;DHT22;49838;51.798;10.954;2024-03-23T10:36:15;15.70;45.40
64549;DHT22;49838;51.798;10.954;2024-03-23T10:38:44;16.70;46.50
64549;DHT22;49838;51.798;10.954;2024-03-23T10:41:11;17.80;47.00
64549;DHT22;49838;51.798;10.954;2024-03-23T10:43:39;18.70;47.30
64549;DHT22;49838;51.798;10.954;2024-03-23T10:46:06;19.60;47.70
64549;DHT22;49838;51.798;10.954;2024-03-23T10:48:35;20.50;47.30
64549;DHT22;49838;51.798;10.954;2024-03-23T10:51:03;21.30;47.20
64549;DHT22;49838;51.798;10.954;2024-03-23T10:53:30;21.90;46.90
64549;DHT22;49838;51.798;10.954;2024-03-23T10:56:00;22.50;46.60
64549;DHT22;49838;51.798;10.954;2024-03-23T10:58:27;23.00;46.40
64549;DHT22;49838;51.798;10.954;2024-03-23T11:00:59;23.40;45.90
64549;DHT22;49838;51.798;10.954;2024-03-23T11:03:35;23.80;45.40
64549;DHT22;49838;51.798;10.954;2024-03-23T11:06:03;24.20;44.20
64549;DHT22;49838;51.798;10.954;2024-03-23T11:08:34;24.60;44.30
64549;DHT22;49838;51.798;10.954;2024-03-23T11:11:14;25.00;44.50
64549;DHT22;49838;51.798;10.954;2024-03-23T11:13:43;25.30;43.00
64549;DHT22;49838;51.798;10.954;2024-03-23T11:16:15;25.50;41.90
64549;DHT22;49838;51.798;10.954;2024-03-23T11:18:42;25.30;40.90
64549;DHT22;49838;51.798;10.954;2024-03-23T11:21:11;24.90;39.60
64549;DHT22;49838;51.798;10.954;2024-03-23T11:24:15;24.40;37.70
64549;DHT22;49838;51.798;10.954;2024-03-23T11:26:42;23.60;37.90
64549;DHT22;49838;51.798;10.954;2024-03-23T11:29:09;23.00;37.00
64549;DHT22;49838;51.798;10.954;2024-03-23T11:31:38;22.20;36.70
64549;DHT22;49838;51.798;10.954;2024-03-23T11:34:04;21.50;36.30
64549;DHT22;49838;51.798;10.954;2024-03-23T11:36:32;20.60;36.30
64549;DHT22;49838;51.798;10.954;2024-03-23T11:38:58;19.80;36.40
64549;DHT22;49838;51.798;10.954;2024-03-23T11:41:25;19.10;36.40
64549;DHT22;49838;51.798;10.954;2024-03-23T11:43:52;18.50;36.70
64549;DHT22;49838;51.798;10.954;2024-03-23T11:46:22;18.00;37.00
64549;DHT22;49838;51.798;10.954;2024-03-23T11:48:50;17.70;37.40
64549;DHT22;49838;51.798;10.954;2024-03-23T11:51:18;17.50;37.80
64549;DHT22;49838;51.798;10.954;2024-03-23T11:53:44;17.30;37.90
64549;DHT22;49838;51.798;10.954;2024-03-23T11:56:11;17.10;38.00
64549;DHT22;49838;51.798;10.954;2024-03-23T11:58:38;16.80;38.10
64549;DHT22;49838;51.798;10.954;2024-03-23T12:01:09;16.50;38.10
64549;DHT22;49838;51.798;10.954;2024-03-23T12:03:36;16.40;38.20
64549;DHT22;49838;51.798;10.954;2024-03-23T12:06:05;16.20;38.40
64549;DHT22;49838;51.798;10.954;2024-03-23T12:08:33;16.20;39.30
64549;DHT22;49838;51.798;10.954;2024-03-23T12:11:05;16.20;38.80
64549;DHT22;49838;51.798;10.954;2024-03-23T12:13:32;16.30;38.80
64549;DHT22;49838;51.798;10.954;2024-03-23T12:16:08;16.40;38.90
64549;DHT22;49838;51.798;10.954;2024-03-23T12:18:36;16.50;39.10
64549;DHT22;49838;51.798;10.954;2024-03-23T12:21:05;16.50;39.10
64549;DHT22;49838;51.798;10.954;2024-03-23T12:23:32;16.50;39.10
64549;DHT22;49838;51.798;10.954;2024-03-23T12:25:59;16.60;39.10
64549;DHT22;49838;51.798;10.954;2024-03-23T12:28:26;16.60;39.00
64549;DHT22;49838;51.798;10.954;2024-03-23T12:30:53;16.60;39.10
64549;DHT22;49838;51.798;10.954;2024-03-23T12:33:20;16.70;39.10
64549;DHT22;49838;51.798;10.954;2024-03-23T12:35:48;16.80;39.20
64549;DHT22;49838;51.798;10.954;2024-03-23T12:38:15;16.90;39.10
64549;DHT22;49838;51.798;10.954;2024-03-23T12:40:45;17.10;39.10
64549;DHT22;49838;51.798;10.954;2024-03-23T12:43:13;17.10;38.90
64549;DHT22;49838;51.798;10.954;2024-03-23T12:45:40;17.20;38.90
64549;DHT22;49838;51.798;10.954;2024-03-23T12:48:07;17.00;38.80
64549;DHT22;49838;51.798;10.954;2024-03-23T12:50:34;16.80;38.70
64549;DHT22;49838;51.798;10.954;2024-03-23T12:53:01;16.50;38.90
64549;DHT22;49838;51.798;10.954;2024-03-23T12:55:29;16.40;38.80
64549;DHT22;49838;51.798;10.954;2024-03-23T12:57:55;16.30;38.70
64549;DHT22;49838;51.798;10.954;2024-03-23T13:00:23;16.30;38.70
64549;DHT22;49838;51.798;10.954;2024-03-23T13:02:49;16.40;38.60
64549;DHT22;49838;51.798;10.954;2024-03-23T13:05:19;16.50;38.60
64549;DHT22;49838;51.798;10.954;2024-03-23T13:07:45;16.50;38.50
64549;DHT22;49838;51.798;10.954;2024-03-23T13:10:12;16.50;38.50
64549;DHT22;49838;51.798;10.954;2024-03-23T13:12:41;16.50;38.60
64549;DHT22;49838;51.798;10.954;2024-03-23T13:15:09;16.40;38.50
64549;DHT22;49838;51.798;10.954;2024-03-23T13:17:35;16.40;38.50
64549;DHT22;49838;51.798;10.954;2024-03-23T13:20:03;16.40;38.50
64549;DHT22;49838;51.798;10.954;2024-03-23T13:22:30;16.30;38.50
64549;DHT22;49838;51.798;10.954;2024-03-23T13:24:57;16.30;38.60
64549;DHT22;49838;51.798;10.954;2024-03-23T13:27:25;16.20;38.60
64549;DHT22;49838;51.798;10.954;2024-03-23T13:29:54;16.40;38.80
64549;DHT22;49838;51.798;10.954;2024-03-23T13:32:20;16.50;38.80
64549;DHT22;49838;51.798;10.954;2024-03-23T13:34:48;16.60;38.80
64549;DHT22;49838;51.798;10.954;2024-03-23T13:37:16;16.60;38.60
64549;DHT22;49838;51.798;10.954;2024-03-23T13:39:43;16.50;38.60
64549;DHT22;49838;51.798;10.954;2024-03-23T13:42:10;16.30;38.70
64549;DHT22;49838;51.798;10.954;2024-03-23T13:44:38;16.10;38.80
64549;DHT22;49838;51.798;10.954;2024-03-23T13:47:06;15.60;38.60
64549;DHT22;49838;51.798;10.954;2024-03-23T13:49:34;15.20;38.50
64549;DHT22;49838;51.798;10.954;2024-03-23T13:52:02;14.80;38.60
64549;DHT22;49838;51.798;10.954;2024-03-23T13:54:29;14.50;38.60
64549;DHT22;49838;51.798;10.954;2024-03-23T13:56:55;14.40;38.80
64549;DHT22;49838;51.798;10.954;2024-03-23T13:59:23;14.40;38.80
64549;DHT22;49838;51.798;10.954;2024-03-23T14:01:50;14.50;38.60
64549;DHT22;49838;51.798;10.954;2024-03-23T14:04:20;14.80;38.60
64549;DHT22;49838;51.798;10.954;2024-03-23T14:06:46;15.00;38.40
64549;DHT22;49838;51.798;10.954;2024-03-23T14:09:14;15.10;38.20
64549;DHT22;49838;51.798;10.954;2024-03-23T14:11:41;15.20;38.20
64549;DHT22;49838;51.798;10.954;2024-03-23T14:14:09;15.20;38.10
64549;DHT22;49838;51.798;10.954;2024-03-23T14:16:36;15.30;38.30
64549;DHT22;49838;51.798;10.954;2024-03-23T14:19:04;15.30;38.30
64549;DHT22;49838;51.798;10.954;2024-03-23T14:21:32;15.40;38.40
64549;DHT22;49838;51.798;10.954;2024-03-23T14:24:00;15.60;38.50
64549;DHT22;49838;51.798;10.954;2024-03-23T14:26:27;15.70;38.40
64549;DHT22;49838;51.798;10.954;2024-03-23T14:28:55;15.80;38.50
64549;DHT22;49838;51.798;10.954;2024-03-23T14:31:24;15.80;38.40
64549;DHT22;49838;51.798;10.954;2024-03-23T14:33:51;15.70;38.30
64549;DHT22;49838;51.798;10.954;2024-03-23T14:36:18;15.80;38.60
64549;DHT22;49838;51.798;10.954;2024-03-23T14:38:48;15.90;38.40
64549;DHT22;49838;51.798;10.954;2024-03-23T14:41:15;15.80;38.50
64549;DHT22;49838;51.798;10.954;2024-03-23T14:43:43;15.70;38.50
64549;DHT22;49838;51.798;10.954;2024-03-23T14:46:10;15.70;38.60
64549;DHT22;49838;51.798;10.954;2024-03-23T14:48:39;15.60;39.30
64549;DHT22;49838;51.798;10.954;2024-03-23T14:51:06;15.60;38.60
64549;DHT22;49838;51.798;10.954;2024-03-23T14:53:34;15.60;38.50
64549;DHT22;49838;51.798;10.954;2024-03-23T14:56:03;15.60;38.50
64549;DHT22;49838;51.798;10.954;2024-03-23T14:58:31;15.60;38.50
64549;DHT22;49838;51.798;10.954;2024-03-23T15:01:00;15.60;38.50
64549;DHT22;49838;51.798;10.954;2024-03-23T15:03:28;15.60;38.50
64549;DHT22;49838;51.798;10.954;2024-03-23T15:05:55;15.60;38.50
64549;DHT22;49838;51.798;10.954;2024-03-23T15:08:28;15.60;38.30
64549;DHT22;49838;51.798;10.954;2024-03-23T15:10:55;15.60;38.30
64549;DHT22;49838;51.798;10.954;2024-03-23T15:13:27;15.50;38.20
64549;DHT22;49838;51.798;10.954;2024-03-23T15:15:53;15.40;38.10
64549;DHT22;49838;51.798;10.954;2024-03-23T15:18:21;15.20;38.20
64549;DHT22;49838;51.798;10.954;2024-03-23T15:20:52;14.80;38.00
64549;DHT22;49838;51.798;10.954;2024-03-23T15:23:19;14.40;38.40
64549;DHT22;49838;51.798;10.954;2024-03-23T15:25:53;14.00;38.60
64549;DHT22;49838;51.798;10.954;2024-03-23T15:28:20;13.70;38.70
64549;DHT22;49838;51.798;10.954;2024-03-23T15:30:48;13.40;39.00
64549;DHT22;49838;51.798;10.954;2024-03-23T15:33:15;13.10;39.00
64549;DHT22;49838;51.798;10.954;2024-03-23T15:35:43;12.90;38.90
64549;DHT22;49838;51.798;10.954;2024-03-23T15:38:09;12.80;38.80
64549;DHT22;49838;51.798;10.954;2024-03-23T15:40:36;12.70;38.80
64549;DHT22;49838;51.798;10.954;2024-03-23T15:43:03;13.00;38.90
64549;DHT22;49838;51.798;10.954;2024-03-23T15:45:31;13.30;38.70
64549;DHT22;49838;51.798;10.954;2024-03-23T15:48:00;13.60;38.50
64549;DHT22;49838;51.798;10.954;2024-03-23T15:50:27;13.80;38.50
64549;DHT22;49838;51.798;10.954;2024-03-23T15:52:54;13.70;38.40
64549;DHT22;49838;51.798;10.954;2024-03-23T15:55:22;13.70;38.50
64549;DHT22;49838;51.798;10.954;2024-03-23T15:57:48;13.70;38.80
64549;DHT22;49838;51.798;10.954;2024-03-23T16:00:16;13.70;38.70
64549;DHT22;49838;51.798;10.954;2024-03-23T16:02:43;13.60;38.70
64549;DHT22;49838;51.798;10.954;2024-03-23T16:05:15;13.60;38.80
64549;DHT22;49838;51.798;10.954;2024-03-23T16:07:42;13.60;38.80
64549;DHT22;49838;51.798;10.954;2024-03-23T16:10:09;13.60;38.70
64549;DHT22;49838;51.798;10.954;2024-03-23T16:12:37;13.60;38.70
64549;DHT22;49838;51.798;10.954;2024-03-23T16:15:07;13.70;38.60
64549;DHT22;49838;51.798;10.954;2024-03-23T16:17:35;13.80;38.70
64549;DHT22;49838;51.798;10.954;2024-03-23T16:20:03;13.80;38.50
64549;DHT22;49838;51.798;10.954;2024-03-23T16:22:31;13.90;38.60